createdAt,value
2019-03-21T00:01:39.223Z,46.50
2019-03-21T00:04:11.563Z,46.70
2019-03-21T00:06:41.067Z,46.60
2019-03-21T00:09:14.130Z,47.00
2019-03-21T00:12:04.997Z,47.10
2019-03-21T00:14:37.666Z,47.20
2019-03-21T00:17:09.796Z,47.10
2019-03-21T00:19:39.215Z,47.30
2019-03-21T00:22:08.640Z,47.50
2019-03-21T00:24:38.065Z,47.70
2019-03-21T00:27:07.485Z,47.60
2019-03-21T00:29:36.897Z,47.60
2019-03-21T00:32:06.343Z,47.70
2019-03-21T00:34:35.679Z,47.60
2019-03-21T00:37:05.122Z,47.50
2019-03-21T00:39:35.529Z,47.40
2019-03-21T00:42:04.967Z,47.50
2019-03-21T00:44:34.400Z,47.70
2019-03-21T00:47:03.747Z,47.80
2019-03-21T00:49:33.178Z,48.10
2019-03-21T00:52:02.647Z,48.10
2019-03-21T00:54:32.000Z,48.40
2019-03-21T00:57:01.343Z,48.50
2019-03-21T00:59:31.590Z,48.60
2019-03-21T01:02:00.928Z,48.60
2019-03-21T01:04:30.419Z,48.60
2019-03-21T01:06:59.780Z,48.60
2019-03-21T01:09:30.200Z,48.60
2019-03-21T01:11:59.624Z,48.50
2019-03-21T01:14:30.030Z,48.30
2019-03-21T01:17:00.786Z,48.00
2019-03-21T01:19:30.279Z,48.00
2019-03-21T01:21:59.895Z,47.60
2019-03-21T01:24:29.237Z,47.40
2019-03-21T01:26:59.669Z,47.40
2019-03-21T01:29:29.080Z,47.40
2019-03-21T01:31:58.444Z,47.40
2019-03-21T01:34:27.840Z,47.30
2019-03-21T01:36:57.282Z,47.20
2019-03-21T01:39:26.632Z,47.10
2019-03-21T01:41:55.990Z,47.20
2019-03-21T01:44:25.331Z,47.20
2019-03-21T01:46:54.682Z,47.30
2019-03-21T01:49:24.022Z,47.20
2019-03-21T01:51:53.446Z,47.20
2019-03-21T01:54:22.791Z,47.10
2019-03-21T01:56:52.172Z,47.20
2019-03-21T01:59:21.525Z,47.30
2019-03-21T02:01:50.863Z,47.50
2019-03-21T02:04:20.214Z,47.60
2019-03-21T02:06:49.564Z,47.60
2019-03-21T02:09:18.916Z,47.70
2019-03-21T02:11:48.283Z,47.60
2019-03-21T02:14:17.642Z,47.70
2019-03-21T02:16:46.987Z,47.60
2019-03-21T02:19:16.334Z,47.60
2019-03-21T02:21:45.692Z,47.60
2019-03-21T02:24:15.042Z,47.50
2019-03-21T02:26:44.400Z,47.60
2019-03-21T02:29:13.751Z,47.80
2019-03-21T02:31:43.095Z,48.30
2019-03-21T02:34:12.510Z,48.10
2019-03-21T02:36:42.133Z,47.90
2019-03-21T02:39:11.490Z,48.20
2019-03-21T02:41:40.839Z,48.20
2019-03-21T02:44:10.195Z,48.30
2019-03-21T02:46:39.543Z,48.40
2019-03-21T02:49:08.932Z,48.50
2019-03-21T02:51:38.338Z,48.50
2019-03-21T02:54:07.685Z,48.60
2019-03-21T02:56:37.059Z,48.60
2019-03-21T02:59:06.398Z,48.60
2019-03-21T03:01:35.764Z,48.70
2019-03-21T03:04:05.138Z,48.70
2019-03-21T03:06:34.491Z,48.60
2019-03-21T03:09:05.455Z,48.60
2019-03-21T03:11:34.896Z,48.50
2019-03-21T03:14:04.728Z,48.50
2019-03-21T03:16:34.262Z,48.50
2019-03-21T03:19:03.608Z,48.30
2019-03-21T03:21:32.982Z,48.50
2019-03-21T03:24:02.302Z,48.40
2019-03-21T03:26:31.661Z,48.30
2019-03-21T03:29:01.005Z,48.60
2019-03-21T03:31:30.378Z,48.40
2019-03-21T03:33:59.694Z,49.10
2019-03-21T03:36:29.105Z,48.50
2019-03-21T03:38:58.443Z,48.70
2019-03-21T03:41:27.826Z,48.80
2019-03-21T03:43:57.191Z,48.80
2019-03-21T03:46:26.544Z,52.70
2019-03-21T03:48:55.899Z,52.90
2019-03-21T03:51:25.254Z,53.20
2019-03-21T03:53:54.697Z,53.30
2019-03-21T03:56:24.114Z,53.30
2019-03-21T03:59:01.035Z,53.70
2019-03-21T04:01:30.390Z,54.00
2019-03-21T04:03:59.767Z,54.30
2019-03-21T04:06:29.111Z,55.00
2019-03-21T04:08:58.475Z,55.20
2019-03-21T04:11:28.896Z,55.40
2019-03-21T04:13:58.287Z,55.60
2019-03-21T04:16:27.613Z,56.00
2019-03-21T04:18:57.031Z,57.10
2019-03-21T04:21:26.457Z,57.40
2019-03-21T04:23:55.805Z,57.60
2019-03-21T04:26:31.374Z,57.50
2019-03-21T04:29:00.731Z,57.90
2019-03-21T04:31:30.076Z,58.30
2019-03-21T04:34:03.240Z,58.20
2019-03-21T04:36:32.596Z,59.00
2019-03-21T04:39:01.945Z,58.90
2019-03-21T04:41:31.664Z,59.70
2019-03-21T04:44:01.102Z,59.60
2019-03-21T04:46:30.498Z,60.00
2019-03-21T04:49:00.925Z,61.10
2019-03-21T04:51:30.266Z,60.20
2019-03-21T04:54:00.706Z,60.30
2019-03-21T04:56:30.070Z,59.90
2019-03-21T04:58:59.481Z,61.20
2019-03-21T05:01:28.833Z,61.40
2019-03-21T05:03:58.207Z,63.00
2019-03-21T05:06:27.538Z,62.50
2019-03-21T05:08:57.971Z,62.30
2019-03-21T05:11:27.392Z,62.20
2019-03-21T05:13:56.766Z,62.00
2019-03-21T05:16:26.179Z,61.70
2019-03-21T05:18:58.543Z,62.00
2019-03-21T05:21:27.979Z,62.10
2019-03-21T05:23:57.348Z,62.40
2019-03-21T05:26:26.741Z,63.40
2019-03-21T05:28:56.118Z,63.40
2019-03-21T05:31:34.831Z,63.00
2019-03-21T05:34:04.201Z,63.60
2019-03-21T05:36:33.581Z,63.60
2019-03-21T05:39:04.657Z,64.10
2019-03-21T05:41:33.997Z,64.30
2019-03-21T05:44:09.604Z,64.90
2019-03-21T05:46:38.959Z,65.10
2019-03-21T05:49:08.306Z,65.80
2019-03-21T05:51:37.657Z,66.60
2019-03-21T05:54:07.074Z,68.50
2019-03-21T05:56:36.428Z,67.50
2019-03-21T05:59:05.778Z,68.80
2019-03-21T06:01:35.143Z,68.90
2019-03-21T06:04:05.667Z,68.80
2019-03-21T06:07:05.841Z,69.00
2019-03-21T06:09:36.246Z,69.00
2019-03-21T06:12:06.647Z,69.00
2019-03-21T06:14:42.243Z,69.90
2019-03-21T06:17:11.596Z,69.70
2019-03-21T06:19:53.269Z,71.30
2019-03-21T06:22:54.796Z,70.50
2019-03-21T06:25:39.453Z,70.20
2019-03-21T06:28:08.799Z,69.30
2019-03-21T06:30:38.221Z,68.60
2019-03-21T06:33:07.847Z,68.20
2019-03-21T06:35:38.211Z,68.10
2019-03-21T06:38:07.573Z,68.30
2019-03-21T06:40:36.914Z,67.60
2019-03-21T06:43:06.282Z,65.80
2019-03-21T06:45:35.619Z,63.70
2019-03-21T06:48:04.966Z,62.50
2019-03-21T06:50:34.327Z,62.20
2019-03-21T06:53:03.690Z,61.40
2019-03-21T06:55:33.103Z,61.10
2019-03-21T06:58:02.471Z,62.50
2019-03-21T07:00:31.815Z,63.20
2019-03-21T07:03:01.179Z,62.40
2019-03-21T07:05:30.528Z,61.80
2019-03-21T07:07:59.883Z,61.20
2019-03-21T07:10:29.235Z,61.10
2019-03-21T07:12:58.658Z,60.30
2019-03-21T07:15:27.994Z,59.40
2019-03-21T07:17:58.414Z,59.20
2019-03-21T07:20:27.762Z,59.60
2019-03-21T07:22:57.120Z,58.40
2019-03-21T07:25:26.472Z,58.80
2019-03-21T07:27:55.894Z,59.10
2019-03-21T07:30:25.280Z,59.40
2019-03-21T07:32:54.627Z,58.80
2019-03-21T07:35:23.978Z,58.40
2019-03-21T07:37:53.326Z,58.80
2019-03-21T07:40:22.693Z,58.00
2019-03-21T07:42:52.030Z,57.60
2019-03-21T07:45:21.395Z,56.60
2019-03-21T07:47:50.749Z,54.00
2019-03-21T07:50:20.152Z,51.80
2019-03-21T07:52:49.498Z,50.70
2019-03-21T07:55:18.856Z,48.30
2019-03-21T07:57:48.211Z,46.80
2019-03-21T08:00:18.572Z,45.90
2019-03-21T08:02:47.998Z,47.60
2019-03-21T08:05:18.428Z,47.40
2019-03-21T08:07:47.785Z,46.80
2019-03-21T08:10:17.150Z,47.00
2019-03-21T08:12:46.512Z,45.90
2019-03-21T08:15:18.843Z,46.50
2019-03-21T08:17:48.214Z,45.60
2019-03-21T08:20:17.726Z,44.50
2019-03-21T08:22:47.187Z,43.40
2019-03-21T08:25:16.482Z,43.20
2019-03-21T08:27:45.851Z,41.10
2019-03-21T08:30:23.990Z,41.90
2019-03-21T08:32:53.345Z,41.10
2019-03-21T08:35:22.762Z,38.60
2019-03-21T08:37:52.105Z,40.90
2019-03-21T08:40:21.460Z,40.20
2019-03-21T08:42:51.885Z,40.00
2019-03-21T08:45:22.404Z,40.40
2019-03-21T08:47:51.770Z,39.00
2019-03-21T08:50:21.207Z,38.10
2019-03-21T08:52:50.564Z,37.40
2019-03-21T08:55:19.913Z,35.60
2019-03-21T08:57:49.262Z,34.80
2019-03-21T09:00:18.651Z,34.70
2019-03-21T09:02:47.986Z,34.40
2019-03-21T09:05:18.062Z,35.00
2019-03-21T09:07:46.726Z,33.90
2019-03-21T09:10:16.009Z,34.30
2019-03-21T09:12:45.360Z,34.40
2019-03-21T09:15:14.726Z,34.30
2019-03-21T09:17:44.067Z,33.70
2019-03-21T09:20:13.447Z,33.80
2019-03-21T09:22:42.883Z,33.80
2019-03-21T09:25:12.238Z,32.80
2019-03-21T09:27:41.590Z,32.00
2019-03-21T09:30:13.667Z,32.90
2019-03-21T09:32:44.007Z,32.40
2019-03-21T09:35:13.359Z,31.60
2019-03-21T09:37:42.736Z,32.90
2019-03-21T09:40:13.021Z,31.90
2019-03-21T09:42:42.377Z,31.20
2019-03-21T09:45:11.717Z,29.60
2019-03-21T09:47:41.142Z,29.80
2019-03-21T09:50:10.497Z,30.60
2019-03-21T09:52:39.879Z,30.40
2019-03-21T09:55:09.225Z,30.30
2019-03-21T09:57:38.664Z,30.00
2019-03-21T10:00:09.963Z,29.40
2019-03-21T10:02:39.340Z,29.80
2019-03-21T10:05:09.810Z,31.00
2019-03-21T10:07:39.253Z,29.70
2019-03-21T10:10:08.610Z,29.50
2019-03-21T10:12:38.035Z,30.60
2019-03-21T10:15:07.450Z,29.30
2019-03-21T10:17:36.803Z,29.40
2019-03-21T10:20:07.029Z,29.10
2019-03-21T10:22:36.374Z,28.20
2019-03-21T10:25:06.516Z,29.00
2019-03-21T10:27:35.939Z,28.20
2019-03-21T10:30:07.457Z,28.50
2019-03-21T10:32:36.881Z,27.80
2019-03-21T10:35:09.229Z,27.80
2019-03-21T10:37:38.646Z,27.90
2019-03-21T10:40:08.001Z,28.00
2019-03-21T10:42:37.413Z,27.50
2019-03-21T10:45:06.878Z,28.50
2019-03-21T10:47:36.278Z,27.90
2019-03-21T10:50:06.527Z,28.40
2019-03-21T10:52:36.949Z,27.50
2019-03-21T10:55:06.798Z,29.00
2019-03-21T10:57:37.138Z,28.10
2019-03-21T11:00:09.410Z,27.00
2019-03-21T11:02:38.842Z,28.10
2019-03-21T11:05:08.214Z,26.60
2019-03-21T11:07:37.629Z,27.40
2019-03-21T11:10:07.855Z,28.00
2019-03-21T11:12:37.227Z,27.00
2019-03-21T11:15:07.238Z,27.50
2019-03-21T11:17:36.105Z,27.90
2019-03-21T11:20:08.906Z,26.20
2019-03-21T11:22:38.306Z,26.30
2019-03-21T11:25:08.015Z,25.30
2019-03-21T11:27:37.371Z,26.00
2019-03-21T11:30:15.636Z,26.20
2019-03-21T11:32:38.492Z,27.30
2019-03-21T11:35:07.846Z,25.70
2019-03-21T11:37:37.224Z,26.00
2019-03-21T11:40:06.596Z,27.10
2019-03-21T11:42:35.938Z,27.70
2019-03-21T11:45:07.051Z,28.10
2019-03-21T11:47:41.684Z,27.50
2019-03-21T11:50:07.441Z,25.90
2019-03-21T11:52:36.871Z,25.30
2019-03-21T11:55:07.390Z,24.40
2019-03-21T11:57:37.032Z,25.40
2019-03-21T12:00:12.115Z,25.40
2019-03-21T12:02:41.467Z,25.30
2019-03-21T12:05:10.898Z,24.40
2019-03-21T12:07:40.256Z,25.10
2019-03-21T12:10:11.383Z,25.00
2019-03-21T12:12:40.746Z,25.00
2019-03-21T12:15:10.947Z,26.00
2019-03-21T12:17:40.378Z,26.10
2019-03-21T12:20:16.011Z,25.00
2019-03-21T12:22:47.229Z,24.70
2019-03-21T12:25:16.344Z,25.70
2019-03-21T12:27:45.694Z,25.70
2019-03-21T12:30:27.375Z,25.30
2019-03-21T12:32:56.729Z,25.20
2019-03-21T12:35:26.096Z,25.30
2019-03-21T12:37:55.519Z,25.30
2019-03-21T12:40:24.880Z,25.30
2019-03-21T12:42:54.252Z,25.10
2019-03-21T12:45:23.625Z,26.30
2019-03-21T12:47:53.008Z,26.10
2019-03-21T12:50:22.358Z,25.20
2019-03-21T12:52:51.779Z,24.40
2019-03-21T12:55:21.146Z,24.90
2019-03-21T12:57:50.567Z,24.50
2019-03-21T13:00:26.057Z,25.40
2019-03-21T13:02:55.423Z,24.40
2019-03-21T13:05:30.609Z,25.60
2019-03-21T13:08:00.940Z,25.50
2019-03-21T13:10:30.400Z,24.80
2019-03-21T13:12:59.767Z,25.20
2019-03-21T13:15:30.219Z,24.90
2019-03-21T13:18:00.592Z,24.60
2019-03-21T13:20:30.156Z,24.60
2019-03-21T13:22:59.515Z,25.30
2019-03-21T13:25:28.876Z,26.00
2019-03-21T13:27:58.235Z,25.60
2019-03-21T13:30:27.600Z,25.80
2019-03-21T13:32:57.025Z,25.30
2019-03-21T13:35:32.682Z,25.70
2019-03-21T13:37:57.370Z,24.90
2019-03-21T13:40:26.760Z,24.70
2019-03-21T13:42:56.120Z,24.20
2019-03-21T13:45:25.484Z,24.40
2019-03-21T13:47:54.839Z,24.40
2019-03-21T13:50:24.190Z,26.70
2019-03-21T13:53:04.366Z,25.50
2019-03-21T13:55:24.612Z,25.40
2019-03-21T13:57:53.972Z,25.70
2019-03-21T14:00:23.333Z,25.20
2019-03-21T14:02:52.840Z,24.90
2019-03-21T14:05:22.250Z,24.30
2019-03-21T14:07:51.631Z,24.40
2019-03-21T14:10:20.996Z,24.50
2019-03-21T14:12:51.515Z,25.20
2019-03-21T14:15:21.766Z,24.20
2019-03-21T14:17:51.132Z,24.40
2019-03-21T14:20:20.517Z,24.00
2019-03-21T14:22:49.846Z,23.70
2019-03-21T14:25:19.211Z,23.50
2019-03-21T14:27:48.666Z,23.10
2019-03-21T14:30:18.391Z,23.30
2019-03-21T14:32:47.768Z,23.10
2019-03-21T14:35:17.695Z,23.00
2019-03-21T14:37:46.355Z,22.60
2019-03-21T14:40:16.297Z,22.20
2019-03-21T14:42:45.694Z,22.90
2019-03-21T14:45:16.865Z,21.60
2019-03-21T14:47:46.246Z,21.70
2019-03-21T14:50:17.042Z,22.60
2019-03-21T14:52:46.422Z,21.90
2019-03-21T14:55:15.859Z,21.80
2019-03-21T14:57:45.216Z,22.00
2019-03-21T15:00:19.341Z,22.20
2019-03-21T15:02:48.764Z,22.60
2019-03-21T15:05:18.191Z,22.90
2019-03-21T15:07:47.551Z,22.50
2019-03-21T15:10:17.851Z,21.60
2019-03-21T15:12:47.221Z,22.50
2019-03-21T15:15:16.575Z,22.60
2019-03-21T15:17:46.090Z,21.20
2019-03-21T15:20:16.478Z,20.40
2019-03-21T15:22:45.928Z,20.10
2019-03-21T15:25:15.273Z,19.40
2019-03-21T15:27:44.635Z,19.70
2019-03-21T15:30:17.469Z,20.10
2019-03-21T15:32:46.930Z,20.20
2019-03-21T15:35:17.274Z,19.80
2019-03-21T15:37:46.782Z,20.40
2019-03-21T15:40:17.003Z,20.10
2019-03-21T15:42:46.362Z,19.50
2019-03-21T15:45:22.930Z,19.70
2019-03-21T15:47:48.762Z,18.10
2019-03-21T15:50:37.240Z,16.60
2019-03-21T15:53:18.779Z,14.80
2019-03-21T15:55:48.136Z,15.20
2019-03-21T15:58:17.526Z,15.10
2019-03-21T16:00:46.872Z,14.50
2019-03-21T16:03:16.332Z,14.50
2019-03-21T16:05:46.845Z,14.30
2019-03-21T16:08:16.198Z,14.20
2019-03-21T16:10:45.569Z,14.60
2019-03-21T16:13:14.935Z,15.50
2019-03-21T16:15:44.294Z,16.20
2019-03-21T16:18:13.661Z,15.90
2019-03-21T16:20:43.027Z,15.70
2019-03-21T16:23:12.399Z,16.00
2019-03-21T16:25:41.782Z,16.40
2019-03-21T16:28:11.150Z,16.40
2019-03-21T16:30:40.595Z,16.70
2019-03-21T16:33:10.040Z,17.00
2019-03-21T16:35:39.460Z,17.50
2019-03-21T16:38:08.874Z,18.80
2019-03-21T16:40:39.313Z,18.50
2019-03-21T16:43:11.616Z,18.90
2019-03-21T16:45:41.113Z,19.20
2019-03-21T16:48:10.432Z,20.20
2019-03-21T16:50:39.787Z,21.10
2019-03-21T16:53:09.163Z,21.90
2019-03-21T16:55:38.533Z,22.30
2019-03-21T16:58:07.882Z,22.70
2019-03-21T17:00:37.311Z,23.80
2019-03-21T17:03:06.667Z,24.70
2019-03-21T17:05:36.106Z,25.20
2019-03-21T17:08:11.163Z,24.80
2019-03-21T17:10:36.493Z,24.90
2019-03-21T17:13:06.488Z,25.50
2019-03-21T17:15:36.787Z,25.80
2019-03-21T17:18:06.168Z,26.10
2019-03-21T17:20:35.520Z,26.60
2019-03-21T17:23:04.976Z,27.80
2019-03-21T17:25:34.307Z,28.80
2019-03-21T17:28:03.775Z,30.30
2019-03-21T17:30:33.127Z,32.20
2019-03-21T17:33:02.562Z,34.90
2019-03-21T17:35:31.991Z,36.30
2019-03-21T17:38:01.418Z,36.20
2019-03-21T17:40:30.784Z,37.10
2019-03-21T17:43:00.352Z,39.80
2019-03-21T17:45:29.718Z,41.40
2019-03-21T17:48:02.072Z,41.20
2019-03-21T17:50:31.536Z,41.60
2019-03-21T17:53:00.883Z,42.00
2019-03-21T17:55:30.256Z,42.90
2019-03-21T17:57:59.607Z,42.70
2019-03-21T18:00:30.598Z,43.00
2019-03-21T18:03:00.023Z,42.70
2019-03-21T18:05:29.443Z,43.10
2019-03-21T18:07:58.842Z,43.30
2019-03-21T18:10:34.540Z,43.60
2019-03-21T18:13:03.975Z,43.60
2019-03-21T18:15:33.336Z,43.90
2019-03-21T18:18:02.719Z,44.90
2019-03-21T18:20:32.061Z,45.00
2019-03-21T18:23:02.004Z,45.00
2019-03-21T18:25:30.740Z,45.30
2019-03-21T18:28:00.084Z,45.90
2019-03-21T18:30:29.527Z,46.40
2019-03-21T18:32:58.889Z,47.40
2019-03-21T18:35:28.246Z,48.30
2019-03-21T18:37:57.681Z,49.10
2019-03-21T18:40:28.119Z,49.20
2019-03-21T18:42:57.480Z,49.30
2019-03-21T18:45:26.842Z,50.30
2019-03-21T18:47:56.207Z,51.60
2019-03-21T18:50:25.578Z,52.20
2019-03-21T18:52:54.921Z,52.00
2019-03-21T18:55:24.298Z,52.90
2019-03-21T18:57:53.684Z,52.70
2019-03-21T19:00:23.060Z,52.50
2019-03-21T19:02:52.420Z,52.70
2019-03-21T19:05:21.840Z,52.60
2019-03-21T19:07:51.212Z,52.60
2019-03-21T19:10:20.566Z,52.70
2019-03-21T19:12:49.931Z,52.70
2019-03-21T19:15:19.365Z,52.70
2019-03-21T19:17:48.708Z,52.80
2019-03-21T19:20:19.701Z,52.90
2019-03-21T19:22:49.151Z,53.40
2019-03-21T19:25:19.743Z,53.40
2019-03-21T19:27:49.331Z,52.80
2019-03-21T19:30:19.932Z,52.40
2019-03-21T19:32:49.373Z,52.40
2019-03-21T19:35:18.720Z,53.00
2019-03-21T19:37:48.113Z,53.60
2019-03-21T19:40:18.918Z,54.30
2019-03-21T19:42:48.430Z,54.50
2019-03-21T19:45:20.014Z,55.20
2019-03-21T19:47:49.367Z,54.70
2019-03-21T19:50:21.967Z,54.70
2019-03-21T19:52:51.388Z,54.70
2019-03-21T19:55:30.148Z,54.80
2019-03-21T19:57:51.774Z,54.70
2019-03-21T20:00:22.365Z,54.50
2019-03-21T20:02:51.859Z,55.10
2019-03-21T20:05:21.229Z,54.90
2019-03-21T20:07:50.584Z,54.10
2019-03-21T20:10:21.354Z,54.00
2019-03-21T20:12:50.854Z,54.70
2019-03-21T20:15:20.272Z,55.80
2019-03-21T20:17:49.805Z,54.90
2019-03-21T20:20:19.314Z,55.10
2019-03-21T20:22:49.249Z,55.70
2019-03-21T20:25:18.684Z,56.40
2019-03-21T20:27:48.350Z,56.20
2019-03-21T20:30:22.438Z,58.70
2019-03-21T20:32:51.920Z,60.70
2019-03-21T20:35:21.343Z,61.10
2019-03-21T20:37:50.722Z,60.40
2019-03-21T20:40:20.216Z,60.20
2019-03-21T20:42:49.705Z,60.70
2019-03-21T20:45:19.823Z,61.20
2019-03-21T20:47:48.603Z,61.70
2019-03-21T20:50:17.940Z,61.50
2019-03-21T20:52:47.559Z,61.70
2019-03-21T20:55:16.996Z,61.60
2019-03-21T20:57:46.506Z,61.90
2019-03-21T21:00:22.643Z,61.90
2019-03-21T21:02:54.027Z,61.90
2019-03-21T21:05:23.594Z,61.70
2019-03-21T21:07:53.112Z,60.00
2019-03-21T21:10:22.583Z,59.20
2019-03-21T21:12:53.182Z,58.50
2019-03-21T21:15:22.801Z,58.30
2019-03-21T21:17:52.169Z,58.40
2019-03-21T21:20:21.658Z,58.20
2019-03-21T21:22:51.038Z,58.30
2019-03-21T21:25:20.419Z,59.10
2019-03-21T21:27:50.385Z,60.10
2019-03-21T21:30:21.018Z,60.20
2019-03-21T21:32:50.361Z,60.40
2019-03-21T21:35:19.850Z,61.60
2019-03-21T21:37:49.247Z,61.80
2019-03-21T21:40:18.634Z,61.30
2019-03-21T21:42:47.996Z,61.60
2019-03-21T21:45:17.616Z,62.30
2019-03-21T21:47:46.962Z,63.10
2019-03-21T21:50:17.330Z,62.30
2019-03-21T21:52:46.760Z,62.00
2019-03-21T21:55:16.196Z,62.60
2019-03-21T21:57:45.542Z,62.50
2019-03-21T22:00:19.396Z,63.10
2019-03-21T22:02:48.766Z,63.10
2019-03-21T22:05:18.117Z,62.80
2019-03-21T22:07:47.567Z,63.20
2019-03-21T22:10:16.967Z,62.90
2019-03-21T22:12:46.358Z,62.30
2019-03-21T22:15:16.551Z,62.20
2019-03-21T22:17:45.222Z,61.40
2019-03-21T22:20:15.656Z,61.90
2019-03-21T22:22:44.993Z,61.70
2019-03-21T22:25:14.743Z,61.60
2019-03-21T22:27:44.075Z,61.80
2019-03-21T22:30:17.623Z,62.30
2019-03-21T22:32:46.966Z,62.60
2019-03-21T22:35:17.329Z,63.10
2019-03-21T22:37:47.751Z,63.70
2019-03-21T22:40:17.996Z,64.20
2019-03-21T22:42:47.421Z,64.60
2019-03-21T22:45:17.417Z,64.80
2019-03-21T22:47:46.771Z,65.30
2019-03-21T22:50:17.434Z,65.40
2019-03-21T22:52:46.798Z,65.90
2019-03-21T22:55:16.238Z,66.30
2019-03-21T22:57:45.594Z,66.30
2019-03-21T23:00:19.594Z,66.20
2019-03-21T23:02:50.582Z,66.30
2019-03-21T23:05:19.932Z,66.70
2019-03-21T23:07:49.298Z,67.00
2019-03-21T23:10:18.718Z,67.60
2019-03-21T23:12:48.090Z,68.00
2019-03-21T23:15:17.477Z,67.50
2019-03-21T23:17:46.835Z,67.50
2019-03-21T23:20:16.191Z,66.90
2019-03-21T23:22:45.546Z,66.00
2019-03-21T23:25:16.765Z,65.40
2019-03-21T23:27:46.399Z,65.00
2019-03-21T23:30:19.206Z,65.00
2019-03-21T23:32:48.627Z,65.30
2019-03-21T23:35:19.180Z,65.10
2019-03-21T23:37:48.585Z,65.10
2019-03-21T23:40:17.963Z,65.10
2019-03-21T23:42:48.446Z,64.70
2019-03-21T23:45:19.808Z,64.40
2019-03-21T23:47:48.833Z,64.90
2019-03-21T23:50:19.300Z,65.30
2019-03-21T23:52:48.647Z,65.70
2019-03-21T23:55:18.005Z,66.40
2019-03-21T23:57:47.367Z,66.50
